sensor_id;sensor_type;location;lat;lon;timestamp;temperature;humidity
25933;DHT22;13731;51.166;4.474;2023-07-16T00:02:00;18.30;99.90
25933;DHT22;13731;51.166;4.474;2023-07-16T00:04:26;18.40;99.90
25933;DHT22;13731;51.166;4.474;2023-07-16T00:06:51;18.40;99.90
25933;DHT22;13731;51.166;4.474;2023-07-16T00:09:17;18.40;99.90
25933;DHT22;13731;51.166;4.474;2023-07-16T00:11:43;18.20;99.90
25933;DHT22;13731;51.166;4.474;2023-07-16T00:14:09;18.10;1.00
25933;DHT22;13731;51.166;4.474;2023-07-16T00:16:35;18.10;1.00
25933;DHT22;13731;51.166;4.474;2023-07-16T00:19:01;18.10;1.00
25933;DHT22;13731;51.166;4.474;2023-07-16T00:21:26;18.10;1.00
25933;DHT22;13731;51.166;4.474;2023-07-16T00:23:52;18.00;1.00
25933;DHT22;13731;51.166;4.474;2023-07-16T00:26:18;18.00;1.00
25933;DHT22;13731;51.166;4.474;2023-07-16T00:28:44;17.90;1.00
25933;DHT22;13731;51.166;4.474;2023-07-16T00:31:09;18.00;1.00
25933;DHT22;13731;51.166;4.474;2023-07-16T00:33:35;17.90;1.00
25933;DHT22;13731;51.166;4.474;2023-07-16T00:36:01;17.90;1.00
25933;DHT22;13731;51.166;4.474;2023-07-16T00:38:28;17.70;1.00
25933;DHT22;13731;51.166;4.474;2023-07-16T00:40:56;17.60;1.00
25933;DHT22;13731;51.166;4.474;2023-07-16T00:43:22;17.60;1.00
25933;DHT22;13731;51.166;4.474;2023-07-16T00:45:48;17.60;13.00
25933;DHT22;13731;51.166;4.474;2023-07-16T00:48:14;17.50;84.30
25933;DHT22;13731;51.166;4.474;2023-07-16T00:50:40;17.50;99.90
25933;DHT22;13731;51.166;4.474;2023-07-16T00:53:06;17.40;99.90
25933;DHT22;13731;51.166;4.474;2023-07-16T00:55:33;17.40;99.90
25933;DHT22;13731;51.166;4.474;2023-07-16T00:58:00;17.40;99.90
25933;DHT22;13731;51.166;4.474;2023-07-16T01:00:28;17.30;99.90
25933;DHT22;13731;51.166;4.474;2023-07-16T01:02:54;17.30;99.90
25933;DHT22;13731;51.166;4.474;2023-07-16T01:05:20;17.20;99.90
25933;DHT22;13731;51.166;4.474;2023-07-16T01:07:50;17.20;99.90
25933;DHT22;13731;51.166;4.474;2023-07-16T01:10:17;17.10;1.00
25933;DHT22;13731;51.166;4.474;2023-07-16T01:12:45;17.10;1.00
25933;DHT22;13731;51.166;4.474;2023-07-16T01:15:11;17.00;1.00
25933;DHT22;13731;51.166;4.474;2023-07-16T01:17:38;17.00;1.00
25933;DHT22;13731;51.166;4.474;2023-07-16T01:20:05;16.90;99.90
25933;DHT22;13731;51.166;4.474;2023-07-16T01:27:49;16.80;99.90
25933;DHT22;13731;51.166;4.474;2023-07-16T01:30:16;16.80;99.90
25933;DHT22;13731;51.166;4.474;2023-07-16T01:32:43;16.90;99.90
25933;DHT22;13731;51.166;4.474;2023-07-16T01:35:10;16.90;99.90
25933;DHT22;13731;51.166;4.474;2023-07-16T01:37:36;16.90;66.50
25933;DHT22;13731;51.166;4.474;2023-07-16T01:40:02;16.90;10.00
25933;DHT22;13731;51.166;4.474;2023-07-16T01:42:28;16.90;1.00
25933;DHT22;13731;51.166;4.474;2023-07-16T01:44:54;17.00;1.00
25933;DHT22;13731;51.166;4.474;2023-07-16T01:47:28;16.90;1.00
25933;DHT22;13731;51.166;4.474;2023-07-16T01:49:57;16.90;1.00
25933;DHT22;13731;51.166;4.474;2023-07-16T01:52:22;16.90;1.00
25933;DHT22;13731;51.166;4.474;2023-07-16T01:54:48;16.90;99.90
25933;DHT22;13731;51.166;4.474;2023-07-16T01:57:14;16.90;1.00
25933;DHT22;13731;51.166;4.474;2023-07-16T01:59:40;16.90;99.90
25933;DHT22;13731;51.166;4.474;2023-07-16T02:02:06;16.90;1.00
25933;DHT22;13731;51.166;4.474;2023-07-16T02:04:31;16.90;1.00
25933;DHT22;13731;51.166;4.474;2023-07-16T02:06:58;16.90;1.00
25933;DHT22;13731;51.166;4.474;2023-07-16T02:09:23;16.80;1.00
25933;DHT22;13731;51.166;4.474;2023-07-16T02:11:50;16.80;1.00
25933;DHT22;13731;51.166;4.474;2023-07-16T02:14:16;16.80;16.70
25933;DHT22;13731;51.166;4.474;2023-07-16T02:16:42;16.80;1.00
25933;DHT22;13731;51.166;4.474;2023-07-16T02:19:08;16.70;1.00
25933;DHT22;13731;51.166;4.474;2023-07-16T02:21:34;16.70;1.00
25933;DHT22;13731;51.166;4.474;2023-07-16T02:24:00;16.70;1.00
25933;DHT22;13731;51.166;4.474;2023-07-16T02:26:26;16.80;99.90
25933;DHT22;13731;51.166;4.474;2023-07-16T02:28:52;16.90;28.70
25933;DHT22;13731;51.166;4.474;2023-07-16T02:31:17;17.00;1.00
25933;DHT22;13731;51.166;4.474;2023-07-16T02:33:43;16.90;1.00
25933;DHT22;13731;51.166;4.474;2023-07-16T02:36:09;17.10;1.00
25933;DHT22;13731;51.166;4.474;2023-07-16T02:38:34;17.10;1.00
25933;DHT22;13731;51.166;4.474;2023-07-16T02:41:00;17.10;1.00
25933;DHT22;13731;51.166;4.474;2023-07-16T02:43:26;17.00;1.00
25933;DHT22;13731;51.166;4.474;2023-07-16T02:45:52;17.10;99.90
25933;DHT22;13731;51.166;4.474;2023-07-16T02:48:18;17.10;99.90
25933;DHT22;13731;51.166;4.474;2023-07-16T02:50:43;17.00;99.90
25933;DHT22;13731;51.166;4.474;2023-07-16T02:53:10;17.00;99.90
25933;DHT22;13731;51.166;4.474;2023-07-16T02:55:36;17.00;99.90
25933;DHT22;13731;51.166;4.474;2023-07-16T02:58:02;17.00;99.90
25933;DHT22;13731;51.166;4.474;2023-07-16T03:00:30;17.00;99.90
25933;DHT22;13731;51.166;4.474;2023-07-16T03:02:56;17.00;99.90
25933;DHT22;13731;51.166;4.474;2023-07-16T03:05:21;16.90;99.90
25933;DHT22;13731;51.166;4.474;2023-07-16T03:07:47;16.90;99.90
25933;DHT22;13731;51.166;4.474;2023-07-16T03:10:14;16.80;99.90
25933;DHT22;13731;51.166;4.474;2023-07-16T03:12:41;16.90;99.90
25933;DHT22;13731;51.166;4.474;2023-07-16T03:15:07;16.80;99.90
25933;DHT22;13731;51.166;4.474;2023-07-16T03:17:33;16.80;99.90
25933;DHT22;13731;51.166;4.474;2023-07-16T03:19:59;16.70;99.90
25933;DHT22;13731;51.166;4.474;2023-07-16T03:22:25;16.70;99.90
25933;DHT22;13731;51.166;4.474;2023-07-16T03:24:51;16.60;99.90
25933;DHT22;13731;51.166;4.474;2023-07-16T03:27:16;16.60;99.90
25933;DHT22;13731;51.166;4.474;2023-07-16T03:29:43;16.60;99.90
25933;DHT22;13731;51.166;4.474;2023-07-16T03:32:12;16.60;99.90
25933;DHT22;13731;51.166;4.474;2023-07-16T03:34:38;16.80;99.90
25933;DHT22;13731;51.166;4.474;2023-07-16T03:37:04;16.80;99.90
25933;DHT22;13731;51.166;4.474;2023-07-16T03:39:31;16.80;99.90
25933;DHT22;13731;51.166;4.474;2023-07-16T03:41:57;16.80;99.90
25933;DHT22;13731;51.166;4.474;2023-07-16T03:44:23;16.70;99.90
25933;DHT22;13731;51.166;4.474;2023-07-16T03:46:49;16.70;99.90
25933;DHT22;13731;51.166;4.474;2023-07-16T03:49:15;16.80;99.90
25933;DHT22;13731;51.166;4.474;2023-07-16T03:51:41;16.80;99.90
25933;DHT22;13731;51.166;4.474;2023-07-16T03:54:06;16.80;99.90
25933;DHT22;13731;51.166;4.474;2023-07-16T03:56:32;16.80;99.90
25933;DHT22;13731;51.166;4.474;2023-07-16T03:58:58;16.70;99.90
25933;DHT22;13731;51.166;4.474;2023-07-16T04:01:24;16.60;99.90
25933;DHT22;13731;51.166;4.474;2023-07-16T04:03:50;16.60;99.90
25933;DHT22;13731;51.166;4.474;2023-07-16T04:06:16;16.50;99.90
25933;DHT22;13731;51.166;4.474;2023-07-16T04:08:41;16.50;99.90
25933;DHT22;13731;51.166;4.474;2023-07-16T04:11:07;16.50;99.90
25933;DHT22;13731;51.166;4.474;2023-07-16T04:13:34;16.50;99.90
25933;DHT22;13731;51.166;4.474;2023-07-16T04:16:00;16.50;99.90
25933;DHT22;13731;51.166;4.474;2023-07-16T04:18:26;16.50;99.90
25933;DHT22;13731;51.166;4.474;2023-07-16T04:20:52;16.60;99.90
25933;DHT22;13731;51.166;4.474;2023-07-16T04:23:18;16.70;99.90
25933;DHT22;13731;51.166;4.474;2023-07-16T04:25:43;16.80;99.90
25933;DHT22;13731;51.166;4.474;2023-07-16T04:28:12;16.80;99.90
25933;DHT22;13731;51.166;4.474;2023-07-16T04:30:38;16.90;99.90
25933;DHT22;13731;51.166;4.474;2023-07-16T04:33:04;17.00;99.90
25933;DHT22;13731;51.166;4.474;2023-07-16T04:35:30;17.00;99.90
25933;DHT22;13731;51.166;4.474;2023-07-16T04:37:55;16.90;99.90
25933;DHT22;13731;51.166;4.474;2023-07-16T04:40:21;16.80;99.90
25933;DHT22;13731;51.166;4.474;2023-07-16T04:42:47;16.80;99.90
25933;DHT22;13731;51.166;4.474;2023-07-16T04:45:15;16.80;99.90
25933;DHT22;13731;51.166;4.474;2023-07-16T04:47:40;16.80;99.90
25933;DHT22;13731;51.166;4.474;2023-07-16T04:50:06;16.80;99.90
25933;DHT22;13731;51.166;4.474;2023-07-16T04:52:32;16.90;99.90
25933;DHT22;13731;51.166;4.474;2023-07-16T04:55:00;16.80;99.90
25933;DHT22;13731;51.166;4.474;2023-07-16T04:57:26;16.70;99.90
25933;DHT22;13731;51.166;4.474;2023-07-16T04:59:52;16.70;1.00
25933;DHT22;13731;51.166;4.474;2023-07-16T05:02:18;16.70;1.00
25933;DHT22;13731;51.166;4.474;2023-07-16T05:04:44;16.70;1.00
25933;DHT22;13731;51.166;4.474;2023-07-16T05:07:13;16.80;1.00
25933;DHT22;13731;51.166;4.474;2023-07-16T05:09:39;16.80;1.00
25933;DHT22;13731;51.166;4.474;2023-07-16T05:12:05;16.80;1.00
25933;DHT22;13731;51.166;4.474;2023-07-16T05:14:31;16.90;99.90
25933;DHT22;13731;51.166;4.474;2023-07-16T05:16:56;17.00;99.90
25933;DHT22;13731;51.166;4.474;2023-07-16T05:19:22;16.90;99.90
25933;DHT22;13731;51.166;4.474;2023-07-16T05:21:48;17.00;99.90
25933;DHT22;13731;51.166;4.474;2023-07-16T05:24:13;17.00;99.90
25933;DHT22;13731;51.166;4.474;2023-07-16T05:26:39;17.00;1.00
25933;DHT22;13731;51.166;4.474;2023-07-16T05:29:05;17.00;1.00
25933;DHT22;13731;51.166;4.474;2023-07-16T05:31:31;17.00;1.00
25933;DHT22;13731;51.166;4.474;2023-07-16T05:33:56;17.10;1.00
25933;DHT22;13731;51.166;4.474;2023-07-16T05:36:22;17.10;1.00
25933;DHT22;13731;51.166;4.474;2023-07-16T05:38:48;17.20;99.90
25933;DHT22;13731;51.166;4.474;2023-07-16T05:41:14;17.20;99.90
25933;DHT22;13731;51.166;4.474;2023-07-16T05:43:39;17.20;99.90
25933;DHT22;13731;51.166;4.474;2023-07-16T05:46:05;17.30;99.90
25933;DHT22;13731;51.166;4.474;2023-07-16T05:48:31;17.50;99.90
25933;DHT22;13731;51.166;4.474;2023-07-16T05:50:57;17.60;99.90
25933;DHT22;13731;51.166;4.474;2023-07-16T05:53:22;17.70;99.90
25933;DHT22;13731;51.166;4.474;2023-07-16T05:55:48;17.70;99.90
25933;DHT22;13731;51.166;4.474;2023-07-16T05:58:15;17.70;99.90
25933;DHT22;13731;51.166;4.474;2023-07-16T06:00:41;17.60;99.90
25933;DHT22;13731;51.166;4.474;2023-07-16T06:03:07;17.60;99.90
25933;DHT22;13731;51.166;4.474;2023-07-16T06:05:33;17.60;99.90
25933;DHT22;13731;51.166;4.474;2023-07-16T06:08:00;17.70;99.90
25933;DHT22;13731;51.166;4.474;2023-07-16T06:10:26;17.80;99.90
25933;DHT22;13731;51.166;4.474;2023-07-16T06:12:52;17.80;99.90
25933;DHT22;13731;51.166;4.474;2023-07-16T06:15:17;17.70;99.90
25933;DHT22;13731;51.166;4.474;2023-07-16T06:17:43;17.70;99.90
25933;DHT22;13731;51.166;4.474;2023-07-16T06:20:09;17.60;99.90
25933;DHT22;13731;51.166;4.474;2023-07-16T06:22:36;17.70;99.90
25933;DHT22;13731;51.166;4.474;2023-07-16T06:25:01;17.80;99.90
25933;DHT22;13731;51.166;4.474;2023-07-16T06:27:27;17.80;99.90
25933;DHT22;13731;51.166;4.474;2023-07-16T06:29:53;17.90;99.90
25933;DHT22;13731;51.166;4.474;2023-07-16T06:32:19;18.00;99.90
25933;DHT22;13731;51.166;4.474;2023-07-16T06:34:44;18.00;99.90
25933;DHT22;13731;51.166;4.474;2023-07-16T06:37:10;17.90;99.90
25933;DHT22;13731;51.166;4.474;2023-07-16T06:39:36;17.90;99.90
25933;DHT22;13731;51.166;4.474;2023-07-16T06:42:02;17.90;99.90
25933;DHT22;13731;51.166;4.474;2023-07-16T06:44:27;18.00;99.90
25933;DHT22;13731;51.166;4.474;2023-07-16T06:46:53;18.20;99.90
25933;DHT22;13731;51.166;4.474;2023-07-16T06:49:19;18.20;99.90
25933;DHT22;13731;51.166;4.474;2023-07-16T06:51:45;18.20;99.90
25933;DHT22;13731;51.166;4.474;2023-07-16T06:54:11;18.30;99.90
25933;DHT22;13731;51.166;4.474;2023-07-16T06:56:36;18.20;99.90
25933;DHT22;13731;51.166;4.474;2023-07-16T06:59:02;18.40;99.90
25933;DHT22;13731;51.166;4.474;2023-07-16T07:01:28;18.40;99.90
25933;DHT22;13731;51.166;4.474;2023-07-16T07:03:54;18.50;99.90
25933;DHT22;13731;51.166;4.474;2023-07-16T07:06:20;18.50;99.90
25933;DHT22;13731;51.166;4.474;2023-07-16T07:08:46;18.60;99.90
25933;DHT22;13731;51.166;4.474;2023-07-16T07:11:12;18.60;99.90
25933;DHT22;13731;51.166;4.474;2023-07-16T07:13:38;18.50;99.90
25933;DHT22;13731;51.166;4.474;2023-07-16T07:16:04;18.70;99.90
25933;DHT22;13731;51.166;4.474;2023-07-16T07:18:30;18.90;99.90
25933;DHT22;13731;51.166;4.474;2023-07-16T07:20:56;18.90;99.90
25933;DHT22;13731;51.166;4.474;2023-07-16T07:23:21;18.90;99.90
25933;DHT22;13731;51.166;4.474;2023-07-16T07:25:50;18.80;99.90
25933;DHT22;13731;51.166;4.474;2023-07-16T07:28:19;18.90;99.90
25933;DHT22;13731;51.166;4.474;2023-07-16T07:30:45;19.00;99.90
25933;DHT22;13731;51.166;4.474;2023-07-16T07:33:11;19.00;99.90
25933;DHT22;13731;51.166;4.474;2023-07-16T07:35:37;18.90;99.90
25933;DHT22;13731;51.166;4.474;2023-07-16T07:38:03;18.80;99.90
25933;DHT22;13731;51.166;4.474;2023-07-16T07:40:28;19.00;99.90
25933;DHT22;13731;51.166;4.474;2023-07-16T07:42:54;19.20;99.90
25933;DHT22;13731;51.166;4.474;2023-07-16T07:45:20;19.20;99.90
25933;DHT22;13731;51.166;4.474;2023-07-16T07:47:46;19.20;99.90
25933;DHT22;13731;51.166;4.474;2023-07-16T07:50:12;19.40;99.90
25933;DHT22;13731;51.166;4.474;2023-07-16T07:52:37;19.40;99.90
25933;DHT22;13731;51.166;4.474;2023-07-16T07:55:03;19.40;99.90
25933;DHT22;13731;51.166;4.474;2023-07-16T07:57:29;19.50;99.90
25933;DHT22;13731;51.166;4.474;2023-07-16T07:59:55;19.50;99.90
25933;DHT22;13731;51.166;4.474;2023-07-16T08:02:24;19.50;99.90
25933;DHT22;13731;51.166;4.474;2023-07-16T08:04:53;19.70;99.90
25933;DHT22;13731;51.166;4.474;2023-07-16T08:07:19;20.00;99.90
25933;DHT22;13731;51.166;4.474;2023-07-16T08:09:46;20.10;99.90
25933;DHT22;13731;51.166;4.474;2023-07-16T08:12:12;20.00;99.90
25933;DHT22;13731;51.166;4.474;2023-07-16T08:14:38;20.10;99.90
25933;DHT22;13731;51.166;4.474;2023-07-16T08:17:04;20.30;99.90
25933;DHT22;13731;51.166;4.474;2023-07-16T08:19:29;20.40;99.90
25933;DHT22;13731;51.166;4.474;2023-07-16T08:21:55;20.50;99.90
25933;DHT22;13731;51.166;4.474;2023-07-16T08:24:21;20.60;99.90
25933;DHT22;13731;51.166;4.474;2023-07-16T08:26:48;20.60;99.90
25933;DHT22;13731;51.166;4.474;2023-07-16T08:29:13;20.90;99.90
25933;DHT22;13731;51.166;4.474;2023-07-16T08:31:39;21.10;99.90
25933;DHT22;13731;51.166;4.474;2023-07-16T08:34:05;21.20;99.90
25933;DHT22;13731;51.166;4.474;2023-07-16T08:36:32;21.40;99.90
25933;DHT22;13731;51.166;4.474;2023-07-16T08:38:58;21.40;99.90
25933;DHT22;13731;51.166;4.474;2023-07-16T08:41:24;21.30;99.90
25933;DHT22;13731;51.166;4.474;2023-07-16T08:43:50;21.30;99.90
25933;DHT22;13731;51.166;4.474;2023-07-16T08:46:16;21.20;99.90
25933;DHT22;13731;51.166;4.474;2023-07-16T08:48:42;21.10;99.90
25933;DHT22;13731;51.166;4.474;2023-07-16T08:51:09;21.10;99.90
25933;DHT22;13731;51.166;4.474;2023-07-16T08:53:35;21.40;99.90
25933;DHT22;13731;51.166;4.474;2023-07-16T08:56:00;21.80;95.50
25933;DHT22;13731;51.166;4.474;2023-07-16T08:58:27;22.20;95.90
25933;DHT22;13731;51.166;4.474;2023-07-16T09:00:54;22.10;71.90
25933;DHT22;13731;51.166;4.474;2023-07-16T09:03:21;21.90;77.00
25933;DHT22;13731;51.166;4.474;2023-07-16T09:05:46;22.30;61.90
25933;DHT22;13731;51.166;4.474;2023-07-16T09:08:13;22.20;61.50
25933;DHT22;13731;51.166;4.474;2023-07-16T09:10:42;22.30;70.40
25933;DHT22;13731;51.166;4.474;2023-07-16T09:13:08;22.20;52.00
25933;DHT22;13731;51.166;4.474;2023-07-16T09:15:34;22.00;49.80
25933;DHT22;13731;51.166;4.474;2023-07-16T09:18:00;21.90;52.50
25933;DHT22;13731;51.166;4.474;2023-07-16T09:20:26;22.00;59.20
25933;DHT22;13731;51.166;4.474;2023-07-16T09:22:53;22.20;50.90
25933;DHT22;13731;51.166;4.474;2023-07-16T09:25:25;22.20;44.30
25933;DHT22;13731;51.166;4.474;2023-07-16T09:27:51;22.00;38.90
25933;DHT22;13731;51.166;4.474;2023-07-16T09:30:16;21.70;38.40
25933;DHT22;13731;51.166;4.474;2023-07-16T09:32:43;21.60;41.90
25933;DHT22;13731;51.166;4.474;2023-07-16T09:35:11;21.20;55.20
25933;DHT22;13731;51.166;4.474;2023-07-16T09:37:37;21.10;67.50
25933;DHT22;13731;51.166;4.474;2023-07-16T09:40:07;21.00;81.50
25933;DHT22;13731;51.166;4.474;2023-07-16T09:42:36;20.80;86.90
25933;DHT22;13731;51.166;4.474;2023-07-16T09:45:03;21.00;94.10
25933;DHT22;13731;51.166;4.474;2023-07-16T09:47:28;21.10;87.90
25933;DHT22;13731;51.166;4.474;2023-07-16T09:49:54;21.20;82.40
25933;DHT22;13731;51.166;4.474;2023-07-16T09:52:20;21.20;85.40
25933;DHT22;13731;51.166;4.474;2023-07-16T09:54:46;21.30;83.00
25933;DHT22;13731;51.166;4.474;2023-07-16T09:57:12;21.10;81.10
25933;DHT22;13731;51.166;4.474;2023-07-16T09:59:39;20.80;90.50
25933;DHT22;13731;51.166;4.474;2023-07-16T10:02:06;20.60;99.90
25933;DHT22;13731;51.166;4.474;2023-07-16T10:04:39;20.40;99.90
25933;DHT22;13731;51.166;4.474;2023-07-16T10:07:17;20.00;99.90
25933;DHT22;13731;51.166;4.474;2023-07-16T10:12:20;20.40;99.90
25933;DHT22;13731;51.166;4.474;2023-07-16T10:14:46;20.60;99.90
25933;DHT22;13731;51.166;4.474;2023-07-16T10:17:13;21.10;99.90
25933;DHT22;13731;51.166;4.474;2023-07-16T10:19:46;21.40;99.90
25933;DHT22;13731;51.166;4.474;2023-07-16T10:22:12;21.40;99.90
25933;DHT22;13731;51.166;4.474;2023-07-16T10:24:38;21.30;99.90
25933;DHT22;13731;51.166;4.474;2023-07-16T10:27:04;21.30;99.90
25933;DHT22;13731;51.166;4.474;2023-07-16T10:29:30;21.30;99.90
25933;DHT22;13731;51.166;4.474;2023-07-16T10:31:56;21.20;99.90
25933;DHT22;13731;51.166;4.474;2023-07-16T10:34:22;21.00;99.90
25933;DHT22;13731;51.166;4.474;2023-07-16T10:36:49;20.70;99.90
25933;DHT22;13731;51.166;4.474;2023-07-16T10:39:15;20.20;99.90
25933;DHT22;13731;51.166;4.474;2023-07-16T10:41:41;19.90;99.90
25933;DHT22;13731;51.166;4.474;2023-07-16T10:44:14;19.80;99.90
25933;DHT22;13731;51.166;4.474;2023-07-16T10:46:41;19.90;99.90
25933;DHT22;13731;51.166;4.474;2023-07-16T10:49:07;20.20;99.90
25933;DHT22;13731;51.166;4.474;2023-07-16T10:51:33;20.30;99.90
25933;DHT22;13731;51.166;4.474;2023-07-16T10:53:59;20.30;99.90
25933;DHT22;13731;51.166;4.474;2023-07-16T10:56:25;20.10;99.90
25933;DHT22;13731;51.166;4.474;2023-07-16T10:58:51;20.00;99.90
25933;DHT22;13731;51.166;4.474;2023-07-16T11:01:16;19.60;1.00
25933;DHT22;13731;51.166;4.474;2023-07-16T11:03:42;19.20;99.90
25933;DHT22;13731;51.166;4.474;2023-07-16T11:06:08;18.80;95.30
25933;DHT22;13731;51.166;4.474;2023-07-16T11:08:34;18.40;99.90
25933;DHT22;13731;51.166;4.474;2023-07-16T11:11:00;18.10;1.00
25933;DHT22;13731;51.166;4.474;2023-07-16T11:13:31;18.10;1.00
25933;DHT22;13731;51.166;4.474;2023-07-16T11:16:05;18.30;1.00
25933;DHT22;13731;51.166;4.474;2023-07-16T11:18:31;18.70;1.00
25933;DHT22;13731;51.166;4.474;2023-07-16T11:20:58;19.10;99.90
25933;DHT22;13731;51.166;4.474;2023-07-16T11:23:27;19.40;1.00
25933;DHT22;13731;51.166;4.474;2023-07-16T11:25:53;20.10;1.00
25933;DHT22;13731;51.166;4.474;2023-07-16T11:28:19;20.90;12.40
25933;DHT22;13731;51.166;4.474;2023-07-16T11:30:44;21.30;1.00
25933;DHT22;13731;51.166;4.474;2023-07-16T11:33:11;21.80;1.00
25933;DHT22;13731;51.166;4.474;2023-07-16T11:35:37;22.60;99.90
25933;DHT22;13731;51.166;4.474;2023-07-16T11:38:06;22.60;99.90
25933;DHT22;13731;51.166;4.474;2023-07-16T11:40:33;22.40;99.90
25933;DHT22;13731;51.166;4.474;2023-07-16T11:43:07;22.60;99.90
25933;DHT22;13731;51.166;4.474;2023-07-16T11:45:32;23.40;99.90
25933;DHT22;13731;51.166;4.474;2023-07-16T11:47:58;23.90;99.90
25933;DHT22;13731;51.166;4.474;2023-07-16T11:50:25;24.70;60.60
25933;DHT22;13731;51.166;4.474;2023-07-16T11:52:54;25.00;15.40
25933;DHT22;13731;51.166;4.474;2023-07-16T11:55:20;26.10;1.00
25933;DHT22;13731;51.166;4.474;2023-07-16T11:57:46;26.80;1.00
25933;DHT22;13731;51.166;4.474;2023-07-16T12:00:11;26.10;1.00
25933;DHT22;13731;51.166;4.474;2023-07-16T12:02:37;26.30;1.00
25933;DHT22;13731;51.166;4.474;2023-07-16T12:05:03;26.00;1.00
25933;DHT22;13731;51.166;4.474;2023-07-16T12:09:58;25.50;1.00
25933;DHT22;13731;51.166;4.474;2023-07-16T12:12:23;24.70;1.00
25933;DHT22;13731;51.166;4.474;2023-07-16T12:14:49;24.50;1.00
25933;DHT22;13731;51.166;4.474;2023-07-16T12:17:15;25.00;1.00
25933;DHT22;13731;51.166;4.474;2023-07-16T12:19:41;25.50;1.00
25933;DHT22;13731;51.166;4.474;2023-07-16T12:22:06;26.10;1.00
25933;DHT22;13731;51.166;4.474;2023-07-16T12:24:32;25.70;1.00
25933;DHT22;13731;51.166;4.474;2023-07-16T12:26:58;25.10;1.00
25933;DHT22;13731;51.166;4.474;2023-07-16T12:29:23;24.10;1.00
25933;DHT22;13731;51.166;4.474;2023-07-16T12:31:50;24.00;1.00
25933;DHT22;13731;51.166;4.474;2023-07-16T12:34:15;23.50;1.00
25933;DHT22;13731;51.166;4.474;2023-07-16T12:36:41;23.20;1.00
25933;DHT22;13731;51.166;4.474;2023-07-16T12:39:07;23.30;1.00
25933;DHT22;13731;51.166;4.474;2023-07-16T12:41:32;23.70;1.00
25933;DHT22;13731;51.166;4.474;2023-07-16T12:43:58;24.80;1.00
25933;DHT22;13731;51.166;4.474;2023-07-16T12:46:24;25.80;1.00
25933;DHT22;13731;51.166;4.474;2023-07-16T12:48:49;26.10;1.00
25933;DHT22;13731;51.166;4.474;2023-07-16T12:51:15;26.20;1.00
25933;DHT22;13731;51.166;4.474;2023-07-16T12:53:41;26.90;1.00
25933;DHT22;13731;51.166;4.474;2023-07-16T12:56:09;26.50;1.00
25933;DHT22;13731;51.166;4.474;2023-07-16T12:58:35;26.70;1.00
25933;DHT22;13731;51.166;4.474;2023-07-16T13:01:01;27.50;1.00
25933;DHT22;13731;51.166;4.474;2023-07-16T13:03:27;27.30;1.00
25933;DHT22;13731;51.166;4.474;2023-07-16T13:05:52;26.30;1.00
25933;DHT22;13731;51.166;4.474;2023-07-16T13:08:18;25.80;1.00
25933;DHT22;13731;51.166;4.474;2023-07-16T13:10:44;25.70;1.00
25933;DHT22;13731;51.166;4.474;2023-07-16T13:13:09;26.20;1.00
25933;DHT22;13731;51.166;4.474;2023-07-16T13:15:35;27.00;1.00
25933;DHT22;13731;51.166;4.474;2023-07-16T13:18:01;26.10;1.00
25933;DHT22;13731;51.166;4.474;2023-07-16T13:20:27;25.40;1.00
25933;DHT22;13731;51.166;4.474;2023-07-16T13:22:55;24.70;1.00
25933;DHT22;13731;51.166;4.474;2023-07-16T13:25:20;24.80;1.00
25933;DHT22;13731;51.166;4.474;2023-07-16T13:27:46;24.40;1.00
25933;DHT22;13731;51.166;4.474;2023-07-16T13:30:14;23.70;1.00
25933;DHT22;13731;51.166;4.474;2023-07-16T13:32:40;23.40;1.00
25933;DHT22;13731;51.166;4.474;2023-07-16T13:35:05;23.60;1.00
25933;DHT22;13731;51.166;4.474;2023-07-16T13:37:31;23.80;1.00
25933;DHT22;13731;51.166;4.474;2023-07-16T13:39:57;23.80;1.00
25933;DHT22;13731;51.166;4.474;2023-07-16T13:42:23;23.40;1.00
25933;DHT22;13731;51.166;4.474;2023-07-16T13:44:48;23.10;1.00
25933;DHT22;13731;51.166;4.474;2023-07-16T13:47:14;23.30;1.00
25933;DHT22;13731;51.166;4.474;2023-07-16T13:49:40;23.40;1.00
25933;DHT22;13731;51.166;4.474;2023-07-16T13:52:06;23.10;1.00
25933;DHT22;13731;51.166;4.474;2023-07-16T13:54:32;23.10;1.00
25933;DHT22;13731;51.166;4.474;2023-07-16T13:56:58;22.90;1.00
25933;DHT22;13731;51.166;4.474;2023-07-16T13:59:23;22.80;1.00
25933;DHT22;13731;51.166;4.474;2023-07-16T14:01:58;22.90;1.00
25933;DHT22;13731;51.166;4.474;2023-07-16T14:04:24;23.20;1.00
25933;DHT22;13731;51.166;4.474;2023-07-16T14:06:49;23.80;1.00
25933;DHT22;13731;51.166;4.474;2023-07-16T14:09:15;24.20;1.00
25933;DHT22;13731;51.166;4.474;2023-07-16T14:11:41;24.00;1.00
25933;DHT22;13731;51.166;4.474;2023-07-16T14:14:06;23.50;1.00
25933;DHT22;13731;51.166;4.474;2023-07-16T14:16:32;23.20;1.00
25933;DHT22;13731;51.166;4.474;2023-07-16T14:18:58;23.20;1.00
25933;DHT22;13731;51.166;4.474;2023-07-16T14:21:24;23.80;1.00
25933;DHT22;13731;51.166;4.474;2023-07-16T14:23:51;24.80;1.00
25933;DHT22;13731;51.166;4.474;2023-07-16T14:26:16;25.20;1.00
25933;DHT22;13731;51.166;4.474;2023-07-16T14:28:42;25.40;1.00
25933;DHT22;13731;51.166;4.474;2023-07-16T14:31:08;25.90;1.00
25933;DHT22;13731;51.166;4.474;2023-07-16T14:33:34;25.30;1.00
25933;DHT22;13731;51.166;4.474;2023-07-16T14:36:00;24.70;1.00
25933;DHT22;13731;51.166;4.474;2023-07-16T14:38:25;24.60;1.00
25933;DHT22;13731;51.166;4.474;2023-07-16T14:40:51;24.30;1.00
25933;DHT22;13731;51.166;4.474;2023-07-16T14:43:18;24.00;1.00
25933;DHT22;13731;51.166;4.474;2023-07-16T14:45:43;23.90;1.00
25933;DHT22;13731;51.166;4.474;2023-07-16T14:48:09;24.00;1.00
25933;DHT22;13731;51.166;4.474;2023-07-16T14:50:35;23.80;1.00
25933;DHT22;13731;51.166;4.474;2023-07-16T14:53:01;23.60;1.00
25933;DHT22;13731;51.166;4.474;2023-07-16T14:55:26;23.50;1.00
25933;DHT22;13731;51.166;4.474;2023-07-16T14:57:52;23.60;1.00
25933;DHT22;13731;51.166;4.474;2023-07-16T15:00:18;24.00;1.00
25933;DHT22;13731;51.166;4.474;2023-07-16T15:02:43;24.80;1.00
25933;DHT22;13731;51.166;4.474;2023-07-16T15:05:09;25.30;1.00
25933;DHT22;13731;51.166;4.474;2023-07-16T15:07:35;26.30;1.00
25933;DHT22;13731;51.166;4.474;2023-07-16T15:10:02;27.00;1.00
25933;DHT22;13731;51.166;4.474;2023-07-16T15:12:28;27.60;1.00
25933;DHT22;13731;51.166;4.474;2023-07-16T15:14:54;28.20;1.00
25933;DHT22;13731;51.166;4.474;2023-07-16T15:17:20;28.80;1.00
25933;DHT22;13731;51.166;4.474;2023-07-16T15:19:47;29.50;1.00
25933;DHT22;13731;51.166;4.474;2023-07-16T15:22:12;29.00;1.00
25933;DHT22;13731;51.166;4.474;2023-07-16T15:24:41;28.00;1.00
25933;DHT22;13731;51.166;4.474;2023-07-16T15:27:07;27.50;1.00
25933;DHT22;13731;51.166;4.474;2023-07-16T15:29:33;27.40;1.00
25933;DHT22;13731;51.166;4.474;2023-07-16T15:31:58;26.40;1.00
25933;DHT22;13731;51.166;4.474;2023-07-16T15:34:24;25.50;1.00
25933;DHT22;13731;51.166;4.474;2023-07-16T15:36:50;25.60;1.00
25933;DHT22;13731;51.166;4.474;2023-07-16T15:39:15;25.30;1.00
25933;DHT22;13731;51.166;4.474;2023-07-16T15:41:43;25.50;1.00